createdAt,value
2019-03-20T00:01:14.767Z,12.60
2019-03-20T00:03:45.503Z,12.60
2019-03-20T00:06:16.220Z,12.70
2019-03-20T00:08:47.173Z,12.70
2019-03-20T00:11:18.734Z,12.70
2019-03-20T00:13:54.511Z,12.60
2019-03-20T00:16:25.488Z,12.60
2019-03-20T00:18:56.625Z,12.60
2019-03-20T00:21:28.149Z,12.50
2019-03-20T00:23:59.891Z,12.50
2019-03-20T00:26:31.518Z,12.60
2019-03-20T00:29:02.840Z,12.60
2019-03-20T00:31:34.743Z,12.60
2019-03-20T00:34:06.511Z,12.60
2019-03-20T00:36:37.813Z,12.60
2019-03-20T00:39:09.220Z,12.50
2019-03-20T00:41:40.992Z,12.50
2019-03-20T00:44:11.855Z,12.50
2019-03-20T00:47:26.106Z,12.50
2019-03-20T00:49:58.099Z,12.50
2019-03-20T00:52:29.603Z,12.50
2019-03-20T00:59:00.031Z,12.60
2019-03-20T01:01:31.173Z,12.50
2019-03-20T01:04:02.806Z,12.50
2019-03-20T01:06:34.358Z,12.60
2019-03-20T01:09:06.945Z,12.60
2019-03-20T01:11:37.746Z,12.50
2019-03-20T01:14:08.834Z,12.50
2019-03-20T01:16:39.884Z,12.50
2019-03-20T01:19:10.857Z,12.50
2019-03-20T01:21:54.754Z,12.40
2019-03-20T01:24:26.568Z,12.40
2019-03-20T01:26:57.428Z,12.40
2019-03-20T01:29:28.607Z,12.30
2019-03-20T01:31:59.418Z,12.20
2019-03-20T01:34:30.526Z,12.20
2019-03-20T01:37:01.300Z,12.30
2019-03-20T01:39:32.193Z,12.40
2019-03-20T01:42:02.992Z,12.40
2019-03-20T01:44:33.801Z,12.40
2019-03-20T01:47:06.708Z,12.40
2019-03-20T01:49:37.191Z,12.30
2019-03-20T01:52:07.919Z,12.20
2019-03-20T01:54:53.083Z,12.10
2019-03-20T01:57:23.908Z,12.10
2019-03-20T01:59:54.760Z,12.40
2019-03-20T02:02:25.400Z,12.40
2019-03-20T02:04:56.379Z,12.30
2019-03-20T02:07:27.125Z,12.30
2019-03-20T02:09:58.108Z,12.30
2019-03-20T02:12:29.284Z,12.30
2019-03-20T02:15:00.361Z,12.20
2019-03-20T02:17:30.986Z,12.10
2019-03-20T02:20:01.863Z,12.10
2019-03-20T02:22:32.519Z,12.10
2019-03-20T02:25:23.756Z,12.00
2019-03-20T02:27:54.537Z,12.00
2019-03-20T02:30:25.346Z,12.00
2019-03-20T02:32:56.314Z,11.90
2019-03-20T02:35:27.370Z,11.90
2019-03-20T02:37:58.328Z,12.10
2019-03-20T02:40:29.329Z,12.20
2019-03-20T02:43:00.216Z,12.30
2019-03-20T02:45:31.676Z,12.30
2019-03-20T02:48:02.471Z,12.30
2019-03-20T02:50:33.237Z,12.30
2019-03-20T02:53:04.173Z,12.30
2019-03-20T02:55:35.317Z,12.20
2019-03-20T02:58:06.732Z,12.20
2019-03-20T03:00:37.709Z,12.20
2019-03-20T03:03:08.627Z,12.20
2019-03-20T03:05:39.830Z,12.20
2019-03-20T03:08:15.695Z,12.20
2019-03-20T03:10:49.365Z,12.20
2019-03-20T03:13:20.260Z,12.20
2019-03-20T03:15:52.620Z,12.20
2019-03-20T03:18:23.335Z,12.20
2019-03-20T03:20:54.295Z,12.10
2019-03-20T03:23:24.936Z,12.10
2019-03-20T03:25:55.662Z,12.10
2019-03-20T03:28:26.397Z,12.10
2019-03-20T03:30:57.267Z,12.20
2019-03-20T03:33:27.971Z,12.10
2019-03-20T03:35:58.906Z,12.10
2019-03-20T03:38:29.743Z,12.10
2019-03-20T03:41:00.603Z,12.20
2019-03-20T03:43:32.440Z,12.30
2019-03-20T03:46:03.606Z,12.40
2019-03-20T03:48:34.312Z,12.50
2019-03-20T03:51:05.343Z,12.40
2019-03-20T03:53:36.035Z,12.40
2019-03-20T03:56:06.819Z,12.50
2019-03-20T03:58:37.461Z,12.40
2019-03-20T04:01:08.254Z,12.30
2019-03-20T04:03:38.870Z,12.20
2019-03-20T04:06:09.715Z,12.10
2019-03-20T04:08:40.604Z,12.10
2019-03-20T04:11:26.599Z,12.30
2019-03-20T04:13:57.540Z,12.40
2019-03-20T04:16:28.318Z,12.30
2019-03-20T04:18:59.060Z,12.10
2019-03-20T04:21:29.969Z,12.00
2019-03-20T04:24:00.775Z,11.90
2019-03-20T04:26:31.620Z,11.90
2019-03-20T04:29:02.356Z,12.00
2019-03-20T04:31:33.212Z,12.10
2019-03-20T04:34:03.974Z,12.30
2019-03-20T04:36:46.830Z,12.40
2019-03-20T04:39:08.291Z,12.30
2019-03-20T04:41:39.106Z,12.20
2019-03-20T04:44:09.899Z,12.20
2019-03-20T04:46:40.656Z,12.30
2019-03-20T04:49:11.323Z,12.10
2019-03-20T04:51:42.299Z,12.10
2019-03-20T04:54:12.968Z,12.00
2019-03-20T04:56:43.814Z,12.00
2019-03-20T04:59:14.442Z,12.00
2019-03-20T05:05:17.690Z,12.00
2019-03-20T05:07:48.556Z,11.90
2019-03-20T05:10:19.361Z,11.90
2019-03-20T05:12:50.313Z,11.90
2019-03-20T05:15:21.200Z,11.90
2019-03-20T05:17:51.987Z,12.10
2019-03-20T05:20:22.878Z,12.00
2019-03-20T05:22:53.758Z,12.00
2019-03-20T05:25:24.377Z,12.00
2019-03-20T05:27:55.260Z,12.00
2019-03-20T05:30:26.076Z,11.90
2019-03-20T05:32:56.688Z,11.80
2019-03-20T05:35:50.625Z,11.80
2019-03-20T05:38:23.072Z,11.70
2019-03-20T05:40:53.724Z,11.70
2019-03-20T05:43:24.516Z,11.70
2019-03-20T05:45:56.210Z,11.50
2019-03-20T05:48:27.089Z,11.50
2019-03-20T05:50:57.735Z,11.50
2019-03-20T05:53:28.507Z,11.50
2019-03-20T05:55:59.261Z,11.40
2019-03-20T05:58:29.890Z,11.40
2019-03-20T06:01:00.644Z,11.30
2019-03-20T06:03:31.521Z,11.30
2019-03-20T06:06:02.332Z,11.20
2019-03-20T06:08:32.974Z,11.20
2019-03-20T06:11:04.609Z,11.30
2019-03-20T06:13:35.217Z,11.30
2019-03-20T06:16:05.982Z,11.30
2019-03-20T06:18:36.780Z,11.40
2019-03-20T06:21:07.475Z,11.40
2019-03-20T06:23:38.303Z,11.30
2019-03-20T06:26:08.916Z,11.30
2019-03-20T06:28:39.614Z,11.40
2019-03-20T06:31:10.480Z,11.30
2019-03-20T06:33:42.162Z,11.30
2019-03-20T06:36:12.803Z,11.20
2019-03-20T06:38:43.492Z,11.20
2019-03-20T06:41:14.319Z,11.20
2019-03-20T06:43:45.084Z,11.30
2019-03-20T06:46:15.834Z,11.50
2019-03-20T06:48:46.673Z,11.60
2019-03-20T06:51:17.480Z,11.70
2019-03-20T06:53:48.264Z,11.70
2019-03-20T06:56:19.218Z,11.80
2019-03-20T06:59:04.941Z,11.80
2019-03-20T07:01:39.028Z,11.90
2019-03-20T07:04:33.747Z,12.00
2019-03-20T07:07:17.392Z,12.10
2019-03-20T07:10:09.695Z,12.20
2019-03-20T07:12:40.455Z,12.30
2019-03-20T07:15:11.328Z,12.40
2019-03-20T07:17:42.258Z,13.30
2019-03-20T07:20:19.253Z,14.40
2019-03-20T07:22:51.982Z,15.90
2019-03-20T07:25:22.792Z,17.00
2019-03-20T07:27:53.516Z,18.20
2019-03-20T07:30:24.210Z,18.20
2019-03-20T07:32:54.875Z,19.40
2019-03-20T07:35:25.721Z,19.50
2019-03-20T07:37:56.585Z,19.60
2019-03-20T07:40:27.718Z,20.00
2019-03-20T07:43:08.216Z,21.10
2019-03-20T07:45:31.245Z,21.50
2019-03-20T07:48:01.905Z,22.30
2019-03-20T07:50:32.727Z,21.30
2019-03-20T07:53:03.457Z,21.30
2019-03-20T07:55:34.280Z,21.30
2019-03-20T07:58:05.587Z,22.10
2019-03-20T08:00:36.382Z,23.10
2019-03-20T08:03:07.126Z,23.90
2019-03-20T08:05:38.015Z,24.30
2019-03-20T08:08:08.687Z,23.50
2019-03-20T08:10:39.524Z,24.60
2019-03-20T08:13:10.335Z,24.50
2019-03-20T08:15:41.033Z,23.90
2019-03-20T08:18:11.921Z,24.00
2019-03-20T08:20:43.669Z,24.50
2019-03-20T08:23:15.273Z,24.60
2019-03-20T08:25:47.092Z,24.00
2019-03-20T08:28:18.551Z,23.20
2019-03-20T08:30:49.934Z,22.50
2019-03-20T08:33:20.726Z,21.40
2019-03-20T08:35:54.515Z,19.60
2019-03-20T08:38:25.285Z,18.90
2019-03-20T08:45:28.388Z,18.10
2019-03-20T08:47:59.583Z,17.10
2019-03-20T08:50:30.349Z,17.20
2019-03-20T08:53:01.190Z,15.90
2019-03-20T08:56:22.406Z,15.80
2019-03-20T08:58:58.714Z,15.40
2019-03-20T09:01:29.561Z,14.80
2019-03-20T09:04:00.406Z,15.40
2019-03-20T09:06:31.255Z,15.70
2019-03-20T09:09:02.270Z,15.90
2019-03-20T09:11:34.333Z,15.80
2019-03-20T09:14:05.406Z,15.10
2019-03-20T09:16:36.586Z,15.50
2019-03-20T09:19:07.526Z,15.90
2019-03-20T09:21:42.216Z,16.00
2019-03-20T09:24:13.488Z,15.90
2019-03-20T09:26:44.247Z,15.40
2019-03-20T09:29:18.792Z,15.30
2019-03-20T09:31:47.381Z,15.70
2019-03-20T09:34:18.637Z,15.70
2019-03-20T09:36:49.435Z,15.00
2019-03-20T09:39:20.518Z,15.30
2019-03-20T09:41:51.263Z,15.70
2019-03-20T09:44:22.166Z,15.90
2019-03-20T09:46:52.958Z,15.70
2019-03-20T09:49:27.618Z,15.00
2019-03-20T09:51:58.559Z,14.90
2019-03-20T09:54:30.108Z,15.40
2019-03-20T09:57:06.420Z,15.80
2019-03-20T09:59:37.402Z,16.00
2019-03-20T10:02:08.163Z,16.00
2019-03-20T10:04:40.046Z,15.90
2019-03-20T10:07:10.924Z,15.70
2019-03-20T10:09:42.727Z,15.40
2019-03-20T10:12:13.413Z,15.60
2019-03-20T10:14:44.650Z,15.50
2019-03-20T10:17:17.331Z,15.40
2019-03-20T10:19:48.844Z,15.30
2019-03-20T10:22:19.647Z,15.60
2019-03-20T10:25:23.227Z,15.50
2019-03-20T10:27:54.110Z,15.80
2019-03-20T10:30:25.391Z,15.80
2019-03-20T10:32:56.254Z,16.00
2019-03-20T10:35:26.982Z,16.00
2019-03-20T10:37:57.835Z,16.10
2019-03-20T10:40:28.898Z,16.20
2019-03-20T10:42:59.776Z,16.10
2019-03-20T10:45:30.883Z,16.00
2019-03-20T10:48:01.912Z,15.90
2019-03-20T10:50:32.835Z,15.90
2019-03-20T10:53:07.187Z,15.90
2019-03-20T10:55:38.265Z,15.90
2019-03-20T10:58:09.070Z,16.00
2019-03-20T11:00:40.929Z,16.10
2019-03-20T11:03:13.566Z,15.90
2019-03-20T11:05:45.134Z,16.10
2019-03-20T11:08:16.561Z,15.90
2019-03-20T11:10:47.544Z,16.00
2019-03-20T11:13:18.683Z,16.00
2019-03-20T11:15:49.935Z,15.90
2019-03-20T11:18:20.812Z,16.00
2019-03-20T11:20:53.541Z,16.10
2019-03-20T11:23:26.284Z,15.80
2019-03-20T11:25:57.124Z,15.90
2019-03-20T11:28:27.997Z,15.90
2019-03-20T11:30:58.739Z,16.10
2019-03-20T11:33:29.696Z,15.70
2019-03-20T11:36:00.510Z,15.90
2019-03-20T11:38:31.281Z,15.90
2019-03-20T11:41:02.580Z,16.00
2019-03-20T11:43:33.466Z,16.20
2019-03-20T11:46:04.747Z,16.30
2019-03-20T11:49:10.411Z,16.20
2019-03-20T11:51:41.636Z,16.40
2019-03-20T11:54:12.581Z,16.30
2019-03-20T11:56:45.342Z,16.30
2019-03-20T11:59:16.298Z,16.20
2019-03-20T12:01:47.623Z,16.20
2019-03-20T12:04:18.722Z,16.30
2019-03-20T12:06:50.189Z,16.30
2019-03-20T12:09:20.972Z,16.50
2019-03-20T12:11:51.997Z,17.50
2019-03-20T12:18:24.347Z,21.70
2019-03-20T12:20:56.345Z,22.70
2019-03-20T12:23:33.774Z,23.20
2019-03-20T12:26:05.399Z,24.30
2019-03-20T12:28:36.696Z,25.20
2019-03-20T12:31:08.430Z,24.60
2019-03-20T12:33:54.921Z,23.60
2019-03-20T12:36:26.829Z,23.80
2019-03-20T12:39:12.310Z,23.60
2019-03-20T12:41:43.824Z,23.20
2019-03-20T12:44:15.006Z,22.60
2019-03-20T12:46:46.005Z,22.90
2019-03-20T12:49:17.364Z,23.60
2019-03-20T12:51:48.699Z,24.20
2019-03-20T12:54:19.954Z,25.10
2019-03-20T12:56:51.070Z,24.20
2019-03-20T12:59:22.134Z,23.50
2019-03-20T13:01:52.852Z,22.80
2019-03-20T13:04:23.620Z,22.60
2019-03-20T13:06:54.431Z,22.80
2019-03-20T13:09:25.780Z,23.40
2019-03-20T13:11:57.159Z,23.00
2019-03-20T13:14:28.983Z,22.60
2019-03-20T13:16:59.828Z,22.90
2019-03-20T13:19:31.395Z,22.70
2019-03-20T13:22:02.489Z,21.50
2019-03-20T13:24:34.750Z,21.10
2019-03-20T13:27:05.957Z,21.40
2019-03-20T13:29:37.126Z,21.30
2019-03-20T13:32:08.425Z,22.00
2019-03-20T13:34:39.972Z,22.60
2019-03-20T13:37:12.218Z,22.30
2019-03-20T13:39:44.175Z,23.10
2019-03-20T13:42:16.068Z,22.60
2019-03-20T13:44:47.572Z,22.60
2019-03-20T13:47:19.438Z,21.60
2019-03-20T13:49:50.497Z,21.30
2019-03-20T13:52:21.593Z,21.50
2019-03-20T13:54:52.380Z,21.60
2019-03-20T13:57:23.926Z,21.20
2019-03-20T13:59:54.854Z,21.10
2019-03-20T14:02:26.055Z,21.30
2019-03-20T14:05:00.781Z,20.70
2019-03-20T14:07:31.837Z,21.00
2019-03-20T14:10:03.644Z,20.50
2019-03-20T14:12:34.620Z,20.70
2019-03-20T14:15:06.742Z,20.20
2019-03-20T14:17:38.027Z,18.50
2019-03-20T14:20:11.763Z,17.60
2019-03-20T14:22:43.918Z,17.10
2019-03-20T14:25:33.052Z,16.60
2019-03-20T14:28:07.180Z,16.50
2019-03-20T14:30:38.413Z,16.30
2019-03-20T14:33:09.804Z,16.20
2019-03-20T14:35:41.008Z,16.00
2019-03-20T14:38:11.830Z,16.00
2019-03-20T14:40:42.705Z,15.60
2019-03-20T14:43:14.251Z,15.40
2019-03-20T14:45:45.809Z,15.50
2019-03-20T14:48:16.813Z,15.60
2019-03-20T14:50:48.059Z,15.30
2019-03-20T14:57:18.172Z,15.50
2019-03-20T14:59:49.037Z,15.70
2019-03-20T15:02:21.063Z,15.70
2019-03-20T15:04:52.086Z,15.50
2019-03-20T15:07:24.769Z,15.30
2019-03-20T15:09:55.776Z,15.20
2019-03-20T15:12:26.821Z,15.10
2019-03-20T15:14:57.688Z,15.10
2019-03-20T15:17:28.585Z,15.30
2019-03-20T15:19:59.877Z,15.50
2019-03-20T15:22:30.684Z,15.50
2019-03-20T15:25:02.439Z,15.40
2019-03-20T15:27:34.080Z,15.30
2019-03-20T15:30:06.337Z,15.20
2019-03-20T15:32:38.168Z,15.10
2019-03-20T15:35:09.810Z,14.90
2019-03-20T15:37:41.224Z,15.90
2019-03-20T15:40:14.332Z,14.70
2019-03-20T15:42:45.139Z,14.80
2019-03-20T15:45:31.135Z,14.70
2019-03-20T15:48:02.455Z,14.70
2019-03-20T15:50:33.398Z,14.60
2019-03-20T15:53:04.853Z,14.60
2019-03-20T15:55:35.884Z,14.60
2019-03-20T15:58:06.907Z,14.50
2019-03-20T16:00:38.437Z,14.60
2019-03-20T16:03:12.338Z,14.70
2019-03-20T16:05:43.956Z,14.60
2019-03-20T16:08:14.923Z,14.50
2019-03-20T16:11:09.014Z,14.40
2019-03-20T16:13:40.119Z,14.40
2019-03-20T16:16:11.410Z,14.40
2019-03-20T16:18:42.696Z,14.40
2019-03-20T16:21:13.409Z,14.30
2019-03-20T16:23:44.668Z,14.20
2019-03-20T16:26:15.649Z,13.30
2019-03-20T16:28:46.750Z,14.10
2019-03-20T16:31:17.575Z,14.10
2019-03-20T16:33:54.113Z,14.00
2019-03-20T16:36:25.831Z,14.00
2019-03-20T16:38:57.189Z,13.90
2019-03-20T16:41:29.825Z,13.80
2019-03-20T16:44:01.346Z,13.80
2019-03-20T16:46:33.049Z,13.90
2019-03-20T16:49:04.526Z,13.90
2019-03-20T16:51:35.897Z,14.00
2019-03-20T16:54:08.138Z,14.00
2019-03-20T16:56:40.036Z,13.90
2019-03-20T16:59:11.995Z,13.90
2019-03-20T17:01:43.890Z,13.90
2019-03-20T17:04:17.329Z,13.80
2019-03-20T17:06:49.056Z,13.80
2019-03-20T17:11:51.346Z,13.70
2019-03-20T17:14:36.251Z,13.70
2019-03-20T17:17:07.439Z,13.70
2019-03-20T17:19:38.560Z,13.80
2019-03-20T17:22:09.411Z,13.80
2019-03-20T17:24:41.087Z,13.60
2019-03-20T17:27:12.162Z,13.60
2019-03-20T17:29:43.366Z,13.60
2019-03-20T17:32:14.519Z,13.60
2019-03-20T17:34:45.516Z,13.70
2019-03-20T17:37:16.516Z,13.60
2019-03-20T17:39:49.296Z,13.60
2019-03-20T17:42:20.737Z,13.60
2019-03-20T17:44:52.235Z,13.60
2019-03-20T17:47:24.155Z,13.60
2019-03-20T17:49:55.748Z,13.60
2019-03-20T17:52:26.957Z,13.60
2019-03-20T17:54:58.465Z,13.60
2019-03-20T17:57:31.399Z,13.50
2019-03-20T18:00:02.848Z,13.50
2019-03-20T18:02:34.878Z,13.50
2019-03-20T18:05:07.789Z,13.50
2019-03-20T18:07:38.991Z,13.50
2019-03-20T18:10:09.963Z,13.50
2019-03-20T18:12:40.822Z,13.40
2019-03-20T18:15:12.488Z,13.50
2019-03-20T18:18:07.907Z,13.50
2019-03-20T18:20:42.350Z,13.60
2019-03-20T18:23:14.485Z,13.50
2019-03-20T18:25:45.858Z,13.60
2019-03-20T18:28:17.150Z,13.60
2019-03-20T18:30:53.054Z,13.60
2019-03-20T18:33:24.075Z,13.80
2019-03-20T18:35:55.189Z,13.70
2019-03-20T18:38:26.230Z,13.70
2019-03-20T18:40:57.897Z,13.80
2019-03-20T18:43:28.652Z,13.90
2019-03-20T18:45:59.456Z,13.90
2019-03-20T18:48:30.618Z,13.80
2019-03-20T18:51:02.772Z,12.70
2019-03-20T18:53:33.918Z,13.90
2019-03-20T18:56:05.348Z,13.90
2019-03-20T18:58:36.355Z,13.90
2019-03-20T19:01:09.957Z,13.90
2019-03-20T19:03:42.734Z,13.90
2019-03-20T19:06:17.175Z,13.90
2019-03-20T19:08:48.770Z,14.00
2019-03-20T19:11:20.073Z,14.00
2019-03-20T19:13:51.386Z,14.10
2019-03-20T19:16:23.656Z,14.00
2019-03-20T19:18:54.860Z,14.00
2019-03-20T19:21:41.873Z,14.00
2019-03-20T19:24:13.640Z,14.00
2019-03-20T19:26:44.472Z,13.90
2019-03-20T19:29:15.179Z,14.00
2019-03-20T19:31:46.247Z,13.90
2019-03-20T19:34:17.325Z,14.00
2019-03-20T19:37:21.740Z,14.00
2019-03-20T19:39:57.027Z,13.90
2019-03-20T19:42:37.676Z,14.00
2019-03-20T19:45:10.083Z,14.00
2019-03-20T19:47:42.109Z,14.00
2019-03-20T19:50:14.097Z,14.00
2019-03-20T19:53:18.148Z,14.00
2019-03-20T19:55:51.992Z,14.10
2019-03-20T19:58:23.019Z,14.10
2019-03-20T20:00:53.793Z,14.10
2019-03-20T20:03:32.939Z,14.00
2019-03-20T20:06:04.597Z,14.00
2019-03-20T20:08:35.786Z,14.00
2019-03-20T20:11:07.333Z,13.80
2019-03-20T20:13:38.783Z,13.80
2019-03-20T20:16:10.537Z,13.80
2019-03-20T20:19:03.912Z,13.70
2019-03-20T20:21:39.163Z,13.70
2019-03-20T20:24:18.339Z,13.80
2019-03-20T20:26:51.694Z,13.90
2019-03-20T20:29:24.670Z,13.90
2019-03-20T20:31:55.996Z,14.00
2019-03-20T20:34:27.343Z,14.00
2019-03-20T20:36:58.354Z,14.00
2019-03-20T20:39:30.672Z,14.00
2019-03-20T20:42:01.641Z,14.00
2019-03-20T20:44:32.698Z,13.90
2019-03-20T20:47:03.720Z,13.90
2019-03-20T20:49:34.802Z,13.90
2019-03-20T20:52:05.983Z,13.90
2019-03-20T20:54:37.687Z,14.00
2019-03-20T20:57:09.152Z,14.00
2019-03-20T20:59:40.688Z,14.00
2019-03-20T21:02:11.892Z,13.80
2019-03-20T21:04:42.810Z,13.70
2019-03-20T21:07:26.503Z,13.60
2019-03-20T21:09:57.591Z,13.60
2019-03-20T21:12:28.394Z,13.50
2019-03-20T21:14:59.575Z,13.60
2019-03-20T21:17:48.021Z,13.60
2019-03-20T21:20:19.327Z,13.50
2019-03-20T21:23:32.632Z,13.50
2019-03-20T21:26:04.074Z,13.40
2019-03-20T21:29:11.499Z,13.40
2019-03-20T21:31:53.914Z,13.40
2019-03-20T21:35:01.860Z,13.40
2019-03-20T21:38:11.676Z,13.30
2019-03-20T21:41:02.261Z,13.40
2019-03-20T21:43:56.082Z,13.30
2019-03-20T21:47:00.209Z,13.30
2019-03-20T21:49:33.360Z,13.30
2019-03-20T21:52:05.084Z,13.30
2019-03-20T21:55:25.748Z,13.20
2019-03-20T21:58:11.425Z,13.20
2019-03-20T22:01:17.530Z,13.20
2019-03-20T22:03:50.591Z,13.20
2019-03-20T22:06:57.182Z,13.20
2019-03-20T22:09:53.288Z,13.20
2019-03-20T22:12:29.685Z,13.20
2019-03-20T22:15:27.475Z,13.20
2019-03-20T22:18:45.276Z,13.20
2019-03-20T22:21:56.457Z,13.20
2019-03-20T22:24:55.133Z,13.10
2019-03-20T22:27:57.397Z,13.10
2019-03-20T22:30:28.652Z,13.10
2019-03-20T22:33:34.478Z,13.10
2019-03-20T22:36:16.430Z,13.00
2019-03-20T22:39:18.389Z,13.00
2019-03-20T22:42:15.923Z,13.00
2019-03-20T22:45:18.571Z,13.10
2019-03-20T22:48:34.920Z,13.00
2019-03-20T22:51:46.395Z,13.00
2019-03-20T22:54:55.847Z,13.00
2019-03-20T22:57:35.179Z,13.00
2019-03-20T23:00:08.174Z,12.90
2019-03-20T23:03:14.155Z,12.90
2019-03-20T23:05:45.865Z,12.80
2019-03-20T23:08:17.155Z,12.80
2019-03-20T23:10:50.308Z,12.80
2019-03-20T23:13:21.589Z,12.80
2019-03-20T23:15:53.091Z,12.70
2019-03-20T23:18:24.445Z,12.70
2019-03-20T23:20:55.684Z,12.60
2019-03-20T23:23:27.230Z,12.60
2019-03-20T23:25:59.674Z,12.60
2019-03-20T23:28:30.980Z,12.60
2019-03-20T23:31:02.442Z,12.60
2019-03-20T23:33:33.879Z,12.60
2019-03-20T23:36:05.889Z,12.60
2019-03-20T23:38:38.411Z,12.60
2019-03-20T23:41:09.843Z,12.60
2019-03-20T23:43:52.179Z,12.50
2019-03-20T23:46:14.769Z,12.50
2019-03-20T23:48:53.555Z,12.50
2019-03-20T23:51:25.594Z,12.50
2019-03-20T23:53:57.843Z,12.50
2019-03-20T23:56:31.304Z,12.50
2019-03-20T23:59:03.096Z,12.50
